Time;durP1;ratioP1;P1;durP2;ratioP2;P2;SDS_P1;SDS_P2;PMS_P1;PMS_P2;Temp;Humidity;BMP_temperature;BMP_pressure;BME280_temperature;BME280_humidity;BME280_pressure;Samples;Min_cycle;Max_cycle;Signal;HPM_P1;HPM_P2
2024/02/27 00:00:35;;;;;;;26.60;17.10;;;;;;;7.53;85.10;99620.55;130353;1264;106601;-82
2024/02/27 00:04:01;;;;;;;25.50;16.20;;;;;;;7.45;84.93;99627.66;130281;1264;109436;-81
2024/02/27 00:07:07;;;;;;;28.20;17.90;;;;;;;7.40;85.02;99627.77;130324;1260;106181;-81
2024/02/27 00:10:15;;;;;;;30.60;19.80;;;;;;;7.36;84.92;99626.40;130378;1264;108360;-81
2024/02/27 00:13:20;;;;;;;29.20;19.20;;;;;;;7.33;84.71;99630.10;130163;1262;106186;-81
2024/02/27 00:16:26;;;;;;;32.20;20.30;;;;;;;7.27;84.70;99631.13;130264;1261;108631;-82
2024/02/27 00:19:32;;;;;;;69.20;35.40;;;;;;;7.22;84.56;99631.97;130293;1261;108655;-82
2024/02/27 00:22:38;;;;;;;43.20;24.50;;;;;;;7.17;84.54;99632.63;130380;1264;108745;-81
2024/02/27 00:25:43;;;;;;;32.90;20.40;;;;;;;7.11;84.49;99633.78;130330;1260;107756;-82
2024/02/27 00:28:49;;;;;;;30.60;19.50;;;;;;;7.03;84.63;99634.27;130373;1260;108551;-82
2024/02/27 00:31:55;;;;;;;57.60;28.80;;;;;;;6.97;84.66;99636.62;130271;1265;106695;-82
2024/02/27 00:35:00;;;;;;;38.00;21.10;;;;;;;6.93;84.68;99640.73;130340;1264;107650;-81
2024/02/27 00:38:06;;;;;;;44.50;27.10;;;;;;;6.90;84.62;99642.79;130325;1264;106989;-81
2024/02/27 00:41:12;;;;;;;35.00;22.60;;;;;;;6.87;84.14;99648.21;130583;1259;106441;-81
2024/02/27 00:44:18;;;;;;;30.40;19.30;;;;;;;6.84;84.14;99650.43;130500;1264;107656;-81
2024/02/27 00:47:23;;;;;;;30.60;19.40;;;;;;;6.80;84.35;99651.02;130304;1263;107783;-81
2024/02/27 00:50:31;;;;;;;25.00;17.50;;;;;;;6.76;84.37;99652.75;130338;1259;106496;-81
2024/02/27 00:53:36;;;;;;;25.70;17.30;;;;;;;6.73;84.45;99653.08;130331;1263;109212;-81
2024/02/27 00:56:42;;;;;;;25.50;16.10;;;;;;;6.67;84.24;99655.91;130447;1261;108848;-81
2024/02/27 00:59:47;;;;;;;24.10;16.60;;;;;;;6.61;84.25;99652.06;130569;1259;108690;-83
2024/02/27 01:02:53;;;;;;;25.40;15.00;;;;;;;6.55;83.93;99650.16;130377;1259;108312;-81
2024/02/27 01:05:58;;;;;;;21.00;14.10;;;;;;;6.48;84.25;99651.09;130312;1263;106901;-82
2024/02/27 01:09:04;;;;;;;26.00;16.10;;;;;;;6.46;84.36;99653.39;130302;1262;107922;-82
2024/02/27 01:12:10;;;;;;;23.50;15.70;;;;;;;6.45;84.10;99654.19;130352;1259;107591;-82
2024/02/27 01:15:16;;;;;;;27.80;17.20;;;;;;;6.45;84.01;99656.17;130392;1263;106410;-82
2024/02/27 01:18:22;;;;;;;25.60;17.20;;;;;;;6.43;83.73;99659.48;130520;1264;107756;-81
2024/02/27 01:21:27;;;;;;;27.40;17.30;;;;;;;6.41;84.13;99665.71;130522;1259;107395;-81
2024/02/27 01:24:33;;;;;;;23.80;16.40;;;;;;;6.38;83.84;99665.52;130459;1259;107112;-81
2024/02/27 01:27:39;;;;;;;23.90;16.80;;;;;;;6.35;84.26;99667.16;130213;1259;230363;-81
2024/02/27 01:30:44;;;;;;;28.30;17.00;;;;;;;6.31;84.14;99669.83;130368;1259;108635;-81
2024/02/27 01:33:50;;;;;;;21.90;14.70;;;;;;;6.26;84.30;99666.31;130358;1263;108580;-80
2024/02/27 01:36:55;;;;;;;22.30;13.60;;;;;;;6.26;84.38;99668.65;130319;1261;107431;-81
2024/02/27 01:40:01;;;;;;;25.20;16.30;;;;;;;6.25;84.08;99669.45;130322;1259;106479;-82
2024/02/27 01:43:20;;;;;;;25.70;16.50;;;;;;;6.24;84.10;99672.20;130378;1260;108644;-81
2024/02/27 01:46:26;;;;;;;24.00;16.80;;;;;;;6.24;84.09;99672.54;130380;1263;106326;-81
2024/02/27 01:49:33;;;;;;;23.90;16.30;;;;;;;6.25;83.94;99672.08;130543;1259;108744;-81
2024/02/27 01:52:39;;;;;;;24.10;16.30;;;;;;;6.23;83.86;99675.26;130353;1259;107607;-81
2024/02/27 01:55:45;;;;;;;22.40;15.00;;;;;;;6.20;83.87;99676.41;130314;1263;107708;-82
2024/02/27 01:58:52;;;;;;;24.60;16.20;;;;;;;6.17;84.02;99685.91;130325;1259;107818;-81
2024/02/27 02:01:58;;;;;;;26.80;17.60;;;;;;;6.12;84.00;99692.19;130596;1263;107568;-81
2024/02/27 02:05:04;;;;;;;30.90;17.80;;;;;;;6.05;83.70;99697.96;130329;1263;106294;-81
2024/02/27 02:08:10;;;;;;;22.30;15.30;;;;;;;6.01;84.34;99707.64;130313;1264;106955;-80
2024/02/27 02:11:16;;;;;;;25.30;16.50;;;;;;;6.00;83.86;99709.34;130466;1261;107642;-81
2024/02/27 02:14:21;;;;;;;25.80;16.90;;;;;;;6.01;83.97;99707.84;130478;1263;107084;-81
2024/02/27 02:17:27;;;;;;;25.50;16.70;;;;;;;6.02;83.78;99704.40;130473;1259;106642;-81
2024/02/27 02:20:33;;;;;;;27.30;17.90;;;;;;;6.01;83.98;99708.01;130468;1259;108709;-81
2024/02/27 02:23:38;;;;;;;26.80;17.60;;;;;;;5.99;83.61;99711.92;130385;1263;108618;-82
2024/02/27 02:26:44;;;;;;;27.80;17.90;;;;;;;5.96;83.63;99712.31;130429;1259;107514;-81
2024/02/27 02:29:50;;;;;;;29.40;19.00;;;;;;;5.94;83.70;99711.61;130404;1260;108644;-81
2024/02/27 02:32:56;;;;;;;22.90;15.00;;;;;;;5.93;83.89;99712.21;130363;1259;108765;-81
2024/02/27 02:36:02;;;;;;;23.30;14.30;;;;;;;5.93;83.83;99713.14;130337;1259;107453;-81
2024/02/27 02:39:07;;;;;;;25.10;16.50;;;;;;;5.95;83.78;99710.64;130329;1264;107560;-82
2024/02/27 02:42:13;;;;;;;27.50;17.30;;;;;;;5.98;83.68;99712.85;130501;1262;108784;-82
2024/02/27 02:45:19;;;;;;;31.60;19.10;;;;;;;6.04;83.97;99717.27;130465;1261;109077;-82
2024/02/27 02:48:24;;;;;;;29.10;18.00;;;;;;;6.06;83.72;99716.21;130374;1264;107657;-83
2024/02/27 02:51:31;;;;;;;29.00;18.50;;;;;;;6.07;83.89;99714.03;130300;1264;108625;-81
2024/02/27 02:54:37;;;;;;;31.10;18.60;;;;;;;6.08;84.08;99708.06;130457;1264;106850;-81
2024/02/27 02:57:42;;;;;;;29.10;18.90;;;;;;;6.10;83.85;99703.99;130646;1259;108707;-81
2024/02/27 03:00:48;;;;;;;24.50;15.70;;;;;;;6.09;83.95;99701.76;130509;1259;107964;-82
2024/02/27 03:03:53;;;;;;;26.90;15.10;;;;;;;6.11;84.15;99708.56;130457;1258;106721;-81
2024/02/27 03:06:59;;;;;;;27.40;16.90;;;;;;;6.12;83.94;99710.52;130474;1259;107584;-82
2024/02/27 03:10:07;;;;;;;29.40;19.00;;;;;;;6.16;84.16;99714.85;130450;1261;108776;-82
2024/02/27 03:13:13;;;;;;;27.30;18.00;;;;;;;6.19;84.18;99718.23;130470;1262;107541;-81
2024/02/27 03:16:19;;;;;;;29.30;19.00;;;;;;;6.21;84.08;99719.23;130509;1259;106408;-82
2024/02/27 03:19:26;;;;;;;29.60;20.00;;;;;;;6.21;84.21;99719.78;130305;1263;108557;-81
2024/02/27 03:22:32;;;;;;;30.00;19.00;;;;;;;6.20;84.10;99723.55;130533;1259;107612;-82
2024/02/27 03:25:37;;;;;;;29.80;19.60;;;;;;;6.20;83.89;99731.02;130367;1263;108535;-82
2024/02/27 03:28:43;;;;;;;23.40;16.30;;;;;;;6.21;84.12;99738.56;130396;1264;106751;-83
2024/02/27 03:31:48;;;;;;;26.80;16.40;;;;;;;6.20;83.84;99739.85;130316;1264;108476;-82
2024/02/27 03:34:54;;;;;;;26.90;17.70;;;;;;;6.21;84.00;99744.34;130266;1264;108837;-83
2024/02/27 03:38:00;;;;;;;26.00;16.90;;;;;;;6.24;84.21;99740.34;130318;1262;108666;-81
2024/02/27 03:41:06;;;;;;;24.90;17.20;;;;;;;6.29;84.39;99743.11;130336;1261;106576;-81
2024/02/27 03:44:11;;;;;;;26.00;17.50;;;;;;;6.33;84.57;99746.33;130371;1259;106635;-82
2024/02/27 03:47:17;;;;;;;29.40;18.70;;;;;;;6.34;84.49;99747.64;130354;1265;106310;-81
2024/02/27 03:50:22;;;;;;;25.10;16.40;;;;;;;6.31;84.30;99743.46;130423;1263;107409;-81
2024/02/27 03:53:30;;;;;;;25.10;17.00;;;;;;;6.30;84.41;99740.19;130360;1263;108778;-81
2024/02/27 03:56:35;;;;;;;26.80;16.00;;;;;;;6.28;84.38;99740.52;130382;1264;108531;-81
2024/02/27 03:59:41;;;;;;;23.30;15.10;;;;;;;6.28;84.78;99742.34;130435;1259;108688;-82
2024/02/27 04:02:46;;;;;;;24.30;16.70;;;;;;;6.30;84.53;99738.65;130332;1259;108516;-81
2024/02/27 04:05:52;;;;;;;26.10;17.30;;;;;;;6.31;84.55;99744.17;130522;1263;107244;-81
2024/02/27 04:08:58;;;;;;;29.70;19.50;;;;;;;6.31;84.47;99738.55;130474;1259;107801;-82
2024/02/27 04:12:03;;;;;;;29.50;19.40;;;;;;;6.36;85.12;99735.66;130697;1263;108500;-81
2024/02/27 04:15:10;;;;;;;31.40;19.70;;;;;;;6.36;85.46;99739.00;130513;1264;107715;-81
2024/02/27 04:18:16;;;;;;;33.00;20.50;;;;;;;6.35;84.99;99744.73;130423;1262;108642;-81
2024/02/27 04:21:22;;;;;;;37.50;22.80;;;;;;;6.33;84.70;99743.53;130415;1264;107092;-81
2024/02/27 04:24:27;;;;;;;29.40;19.30;;;;;;;6.28;84.78;99741.60;130454;1261;108557;-81
2024/02/27 04:27:33;;;;;;;27.60;17.00;;;;;;;6.25;84.75;99737.10;130457;1261;107294;-81
2024/02/27 04:30:39;;;;;;;31.10;18.40;;;;;;;6.24;84.54;99743.77;130494;1259;106570;-81
2024/02/27 04:33:44;;;;;;;28.10;18.10;;;;;;;6.22;84.55;99750.41;130488;1263;106342;-81
2024/02/27 04:36:50;;;;;;;27.80;17.70;;;;;;;6.24;84.84;99749.16;130308;1262;108671;-82
2024/02/27 04:39:56;;;;;;;29.20;18.10;;;;;;;6.24;84.53;99749.21;130500;1259;108291;-81
2024/02/27 04:43:02;;;;;;;27.90;18.80;;;;;;;6.24;85.03;99749.05;130371;1259;108006;-82
2024/02/27 04:46:08;;;;;;;30.50;19.70;;;;;;;6.25;84.94;99745.92;130522;1264;108760;-82
2024/02/27 04:49:13;;;;;;;53.60;29.00;;;;;;;6.25;85.10;99748.02;130424;1263;106320;-82
2024/02/27 04:52:19;;;;;;;39.00;21.10;;;;;;;6.20;84.76;99755.05;130449;1264;108324;-82
2024/02/27 04:55:26;;;;;;;42.10;23.50;;;;;;;6.14;84.66;99759.10;130355;1263;108383;-82
2024/02/27 04:58:32;;;;;;;33.90;20.10;;;;;;;6.09;84.58;99759.89;130479;1265;107836;-82
2024/02/27 05:01:38;;;;;;;30.60;19.40;;;;;;;6.07;84.82;99757.64;130344;1263;106144;-81
2024/02/27 05:04:43;;;;;;;55.50;29.30;;;;;;;6.06;84.48;99761.20;130308;1264;106606;-81
2024/02/27 05:07:49;;;;;;;49.40;27.60;;;;;;;6.07;84.77;99768.52;130518;1263;106838;-81
2024/02/27 05:10:55;;;;;;;91.10;40.30;;;;;;;6.08;84.74;99774.79;130347;1259;108786;-81
2024/02/27 05:14:00;;;;;;;69.80;34.70;;;;;;;6.08;84.71;99778.14;130333;1260;108640;-81
2024/02/27 05:17:06;;;;;;;108.70;48.40;;;;;;;6.05;84.64;99786.23;130350;1264;108632;-81
2024/02/27 05:20:13;;;;;;;99.80;47.30;;;;;;;6.03;84.66;99785.70;130355;1262;107642;-81
2024/02/27 05:23:18;;;;;;;62.00;30.40;;;;;;;6.01;84.97;99792.19;130333;1265;108520;-81
2024/02/27 05:26:24;;;;;;;49.40;26.40;;;;;;;6.02;84.78;99797.20;130384;1264;108722;-81
2024/02/27 05:29:32;;;;;;;54.60;28.10;;;;;;;6.05;84.89;99804.19;130334;1264;107150;-81
2024/02/27 05:32:38;;;;;;;37.40;22.70;;;;;;;6.10;84.84;99802.73;130389;1262;108713;-82
2024/02/27 05:35:44;;;;;;;37.70;23.00;;;;;;;6.15;85.04;99810.64;130380;1259;108425;-82
2024/02/27 05:38:50;;;;;;;35.90;22.40;;;;;;;6.20;85.05;99811.73;130484;1265;107703;-82
2024/02/27 05:41:55;;;;;;;33.70;21.70;;;;;;;6.25;85.59;99813.61;130837;1259;109136;-82
2024/02/27 05:45:01;;;;;;;27.10;18.50;;;;;;;6.29;85.52;99816.60;130793;1259;109020;-82
2024/02/27 05:48:08;;;;;;;29.60;18.70;;;;;;;6.34;85.88;99811.73;130326;1264;107497;-81
2024/02/27 05:51:15;;;;;;;29.00;18.00;;;;;;;6.42;86.86;99815.63;130413;1265;108368;-81
2024/02/27 05:54:20;;;;;;;31.30;18.60;;;;;;;6.49;86.63;99816.89;130434;1259;106411;-81
2024/02/27 05:57:26;;;;;;;30.30;19.30;;;;;;;6.60;86.70;99821.45;130793;1263;108961;-82
2024/02/27 06:00:32;;;;;;;27.10;18.50;;;;;;;6.69;86.55;99827.54;130409;1262;106265;-82
2024/02/27 06:03:38;;;;;;;25.20;18.10;;;;;;;6.79;86.66;99826.06;130298;1264;107877;-81
2024/02/27 06:06:43;;;;;;;28.00;17.90;;;;;;;6.88;86.32;99830.36;130294;1264;107771;-81
2024/02/27 06:09:49;;;;;;;30.60;21.00;;;;;;;6.95;86.56;99828.14;130333;1263;107801;-80
2024/02/27 06:12:54;;;;;;;28.40;18.20;;;;;;;7.03;87.03;99825.84;130559;1259;106914;-78
2024/02/27 06:16:00;;;;;;;24.90;16.90;;;;;;;7.11;86.97;99824.46;130067;1264;107617;-77
2024/02/27 06:19:06;;;;;;;31.70;18.90;;;;;;;7.18;87.33;99824.17;130077;1265;107499;-77
2024/02/27 06:22:13;;;;;;;31.40;20.70;;;;;;;7.27;87.74;99829.45;130295;1263;108282;-77
2024/02/27 06:25:18;;;;;;;38.00;23.80;;;;;;;7.37;88.10;99831.35;130228;1259;107710;-77
2024/02/27 06:28:24;;;;;;;35.20;23.60;;;;;;;7.48;88.39;99831.77;130125;1260;106390;-80
2024/02/27 06:31:30;;;;;;;34.50;22.50;;;;;;;7.59;88.49;99834.67;130299;1265;108711;-81
2024/02/27 06:34:35;;;;;;;29.60;20.20;;;;;;;7.69;88.65;99833.55;130443;1259;107166;-79
2024/02/27 06:37:48;;;;;;;32.60;21.60;;;;;;;7.79;88.67;99830.78;130254;1265;105864;-78
2024/02/27 06:40:54;;;;;;;33.90;21.00;;;;;;;7.94;88.72;99835.65;130326;1259;108527;-78
2024/02/27 06:43:59;;;;;;;31.40;21.50;;;;;;;8.07;89.00;99842.83;130353;1263;107026;-80
2024/02/27 06:47:06;;;;;;;29.20;21.10;;;;;;;8.22;89.09;99841.92;130248;1261;108648;-79
2024/02/27 06:50:12;;;;;;;33.00;21.70;;;;;;;8.34;89.08;99837.66;130301;1264;107172;-77
2024/02/27 06:53:18;;;;;;;29.90;19.50;;;;;;;8.42;89.23;99835.59;130639;1259;108455;-79
2024/02/27 06:56:23;;;;;;;31.40;19.50;;;;;;;8.50;89.29;99835.07;130869;1260;107645;-79
2024/02/27 06:59:29;;;;;;;32.90;21.20;;;;;;;8.57;89.33;99835.05;130206;1264;107789;-78
2024/02/27 07:02:35;;;;;;;34.00;22.30;;;;;;;8.66;89.60;99835.21;130116;1264;107010;-80
2024/02/27 07:05:40;;;;;;;31.40;22.20;;;;;;;8.76;89.44;99833.95;130242;1263;108689;-79
2024/02/27 07:08:50;;;;;;;32.30;23.30;;;;;;;8.84;89.58;99838.20;130155;1264;108305;-80
2024/02/27 07:11:56;;;;;;;31.50;20.60;;;;;;;8.91;89.63;99834.74;130563;1259;108637;-79
2024/02/27 07:15:01;;;;;;;28.70;19.00;;;;;;;8.98;89.83;99833.13;130424;1264;107355;-80
2024/02/27 07:18:07;;;;;;;35.60;23.50;;;;;;;9.08;89.96;99832.19;131214;1263;107452;-79
2024/02/27 07:21:13;;;;;;;33.80;22.70;;;;;;;9.20;90.10;99827.69;132427;1261;108668;-81
2024/02/27 07:24:19;;;;;;;32.30;22.80;;;;;;;9.34;90.23;99826.53;131712;1260;106428;-79
2024/02/27 07:27:25;;;;;;;32.20;22.50;;;;;;;9.44;90.20;99820.55;131722;1259;107383;-79
2024/02/27 07:30:30;;;;;;;32.40;20.90;;;;;;;9.53;90.17;99824.27;130324;1264;108113;-79
2024/02/27 07:33:36;;;;;;;30.10;20.00;;;;;;;9.60;90.41;99825.60;130213;1265;106915;-79
2024/02/27 07:36:41;;;;;;;30.50;21.80;;;;;;;9.70;90.22;99821.60;130329;1261;108509;-79
2024/02/27 07:39:47;;;;;;;31.40;21.60;;;;;;;9.79;90.42;99820.98;130112;1265;108549;-78
2024/02/27 07:42:53;;;;;;;32.00;22.40;;;;;;;9.91;90.45;99834.20;130183;1264;106732;-78
2024/02/27 07:45:59;;;;;;;32.00;22.40;;;;;;;10.02;90.51;99842.09;130209;1265;109006;-78
2024/02/27 07:49:04;;;;;;;34.10;23.70;;;;;;;10.11;90.37;99838.79;130220;1264;108756;-79
2024/02/27 07:52:10;;;;;;;32.90;20.60;;;;;;;10.16;90.47;99840.11;130426;1260;107655;-79
2024/02/27 07:55:16;;;;;;;29.00;20.00;;;;;;;10.21;90.50;99840.70;130146;1259;108746;-79
2024/02/27 07:58:22;;;;;;;27.50;19.60;;;;;;;10.24;90.27;99840.14;130257;1265;107294;-80
2024/02/27 08:01:29;;;;;;;26.70;19.90;;;;;;;10.30;90.76;99846.11;130359;1263;106987;-80
2024/02/27 08:04:35;;;;;;;31.40;21.20;;;;;;;10.37;90.46;99846.51;130519;1264;106826;-81
2024/02/27 08:07:41;;;;;;;30.20;20.60;;;;;;;10.43;90.38;99853.14;130330;1259;107872;-79
2024/02/27 08:10:46;;;;;;;28.80;19.50;;;;;;;10.48;90.48;99851.74;130138;1265;107817;-81
2024/02/27 08:13:52;;;;;;;24.80;16.80;;;;;;;10.51;90.29;99851.10;130638;1264;107674;-80
2024/02/27 08:17:00;;;;;;;30.60;20.30;;;;;;;10.54;90.41;99849.27;130442;1262;108489;-79
2024/02/27 08:20:08;;;;;;;27.90;20.00;;;;;;;10.58;91.05;99855.09;130373;1263;106313;-80
2024/02/27 08:23:13;;;;;;;29.50;21.00;;;;;;;10.70;91.10;99859.88;130456;1260;107844;-80
2024/02/27 08:26:19;;;;;;;31.30;21.60;;;;;;;10.84;90.82;99850.70;130433;1260;108534;-80
2024/02/27 08:29:25;;;;;;;30.70;21.70;;;;;;;10.93;90.56;99852.98;130104;1264;107557;-79
2024/02/27 08:32:31;;;;;;;29.00;19.70;;;;;;;10.90;90.44;99856.27;130302;1265;107750;-81
2024/02/27 08:35:37;;;;;;;27.00;18.60;;;;;;;10.89;90.66;99857.50;130699;1263;107466;-80
2024/02/27 08:38:44;;;;;;;28.30;19.10;;;;;;;10.91;90.57;99859.61;130861;1263;106432;-80
2024/02/27 08:41:50;;;;;;;28.20;20.10;;;;;;;10.96;90.59;99858.11;130422;1265;107689;-80
2024/02/27 08:44:56;;;;;;;31.70;19.80;;;;;;;11.08;90.70;99862.79;130710;1259;106799;-79
2024/02/27 08:48:04;;;;;;;28.50;20.40;;;;;;;11.20;90.70;99865.94;130474;1264;108691;-81
2024/02/27 08:51:09;;;;;;;28.50;19.70;;;;;;;11.33;90.75;99864.00;130381;1274;107511;-81
2024/02/27 08:54:15;;;;;;;29.00;17.40;;;;;;;11.45;90.75;99864.30;130311;1262;107795;-81
2024/02/27 08:57:21;;;;;;;27.10;19.70;;;;;;;11.58;90.89;99866.92;130340;1264;107784;-78
2024/02/27 09:00:26;;;;;;;26.30;19.30;;;;;;;11.75;90.43;99864.04;130114;1265;107685;-81
2024/02/27 09:03:34;;;;;;;27.40;19.60;;;;;;;11.87;90.18;99856.09;130257;1264;107762;-79
2024/02/27 09:06:43;;;;;;;28.20;20.50;;;;;;;11.97;90.14;99852.98;130319;1265;106447;-79
2024/02/27 09:09:49;;;;;;;26.80;20.30;;;;;;;11.99;89.78;99846.94;130201;1259;108080;-80
2024/02/27 09:12:55;;;;;;;29.10;19.30;;;;;;;11.99;89.87;99843.54;130148;1264;106886;-80
2024/02/27 09:16:00;;;;;;;25.50;17.90;;;;;;;12.02;89.91;99841.29;130225;1265;107565;-79
2024/02/27 09:19:06;;;;;;;24.30;17.10;;;;;;;12.11;90.00;99839.84;130143;1265;108830;-80
2024/02/27 09:22:12;;;;;;;25.70;17.40;;;;;;;12.25;89.87;99842.73;130521;1263;107743;-78
2024/02/27 09:25:17;;;;;;;26.90;17.50;;;;;;;12.42;89.56;99840.48;130224;1264;107781;-79
2024/02/27 09:28:23;;;;;;;25.10;17.90;;;;;;;12.56;89.59;99843.48;130227;1265;106949;-77
2024/02/27 09:31:29;;;;;;;25.10;18.10;;;;;;;12.67;89.23;99851.20;130307;1265;108365;-80
2024/02/27 09:34:34;;;;;;;25.00;18.00;;;;;;;12.72;89.10;99851.27;130185;1265;107876;-79
2024/02/27 09:37:40;;;;;;;23.50;16.90;;;;;;;12.79;89.08;99859.39;130197;1265;108446;-78
2024/02/27 09:40:46;;;;;;;25.50;18.00;;;;;;;12.94;88.99;99865.69;130292;1265;107951;-77
2024/02/27 09:43:55;;;;;;;32.70;21.70;;;;;;;13.12;88.71;99873.86;130314;1259;108632;-78
2024/02/27 09:47:05;;;;;;;49.60;33.70;;;;;;;13.24;88.22;99878.52;130218;1264;109220;-79
2024/02/27 09:50:14;;;;;;;28.80;21.00;;;;;;;13.34;88.55;99881.32;130129;1264;107852;-78
2024/02/27 09:53:21;;;;;;;96.10;61.80;;;;;;;13.45;88.16;99879.30;130344;1260;108612;-79
2024/02/27 09:56:27;;;;;;;42.60;29.80;;;;;;;13.54;87.83;99881.65;130645;1265;108577;-81
2024/02/27 09:59:32;;;;;;;44.10;31.10;;;;;;;13.62;87.91;99885.66;130386;1265;107165;-79
2024/02/27 10:02:39;;;;;;;20.60;16.00;;;;;;;13.74;87.54;99888.38;130180;1259;107712;-79
2024/02/27 10:05:45;;;;;;;25.20;17.60;;;;;;;13.88;87.01;99887.27;130272;1264;108666;-79
2024/02/27 10:08:54;;;;;;;19.70;15.40;;;;;;;14.02;86.74;99885.20;130306;1260;107260;-80
2024/02/27 10:12:00;;;;;;;20.80;16.60;;;;;;;14.18;86.51;99885.75;130155;1264;106612;-80
2024/02/27 10:15:08;;;;;;;19.20;15.60;;;;;;;14.32;85.56;99886.27;130308;1263;107433;-83
2024/02/27 10:18:14;;;;;;;20.70;16.40;;;;;;;14.44;85.44;99882.32;130722;1260;108582;-81
2024/02/27 10:21:20;;;;;;;20.20;15.50;;;;;;;14.57;85.17;99880.39;130541;1264;108603;-78
2024/02/27 10:24:28;;;;;;;19.10;14.70;;;;;;;14.65;84.80;99881.87;130285;1264;107832;-79
2024/02/27 10:27:37;;;;;;;19.50;15.70;;;;;;;14.76;84.88;99879.66;130247;1262;107604;-78
2024/02/27 10:30:43;;;;;;;20.80;15.30;;;;;;;14.85;84.47;99879.44;130233;1262;107747;-81
2024/02/27 10:33:51;;;;;;;18.70;14.70;;;;;;;14.94;84.67;99879.77;130388;1265;107918;-81
2024/02/27 10:37:00;;;;;;;20.70;15.40;;;;;;;15.04;84.47;99878.86;130499;1265;106552;-78
2024/02/27 10:40:10;;;;;;;18.30;15.00;;;;;;;15.14;84.27;99880.69;130314;1265;108730;-79
2024/02/27 10:43:16;;;;;;;18.20;14.90;;;;;;;15.19;83.80;99880.45;130089;1260;107439;-78
2024/02/27 10:46:23;;;;;;;16.90;14.20;;;;;;;15.18;83.44;99877.59;130208;1264;108794;-79
2024/02/27 10:49:29;;;;;;;17.80;14.40;;;;;;;15.17;83.44;99878.12;130100;1262;106569;-81
2024/02/27 10:52:37;;;;;;;18.90;14.70;;;;;;;15.15;83.15;99876.77;130303;1259;107166;-78
2024/02/27 10:55:45;;;;;;;18.10;14.80;;;;;;;15.11;83.01;99877.85;130159;1259;107536;-79
2024/02/27 10:58:52;;;;;;;18.10;15.10;;;;;;;15.09;83.06;99883.05;130379;1263;108363;-79
2024/02/27 11:02:00;;;;;;;18.50;15.10;;;;;;;15.09;82.67;99887.89;130180;1274;108017;-78
2024/02/27 11:05:06;;;;;;;20.50;15.40;;;;;;;15.07;82.59;99885.83;130178;1265;108625;-80
2024/02/27 11:08:13;;;;;;;18.30;14.70;;;;;;;15.04;82.69;99887.45;130519;1263;108861;-79
2024/02/27 11:11:20;;;;;;;19.50;14.90;;;;;;;15.02;81.82;99887.73;130528;1263;106580;-79
2024/02/27 11:14:27;;;;;;;20.00;15.40;;;;;;;15.00;82.00;99889.98;130297;1264;107604;-79
2024/02/27 11:17:38;;;;;;;16.80;13.60;;;;;;;15.00;82.01;99888.15;130283;1264;106816;-79
2024/02/27 11:20:44;;;;;;;21.50;15.30;;;;;;;15.02;81.59;99888.42;130193;1264;107536;-79
2024/02/27 11:23:50;;;;;;;19.60;14.90;;;;;;;15.05;81.48;99889.45;130136;1264;108108;-79
2024/02/27 11:26:56;;;;;;;19.90;15.00;;;;;;;15.10;81.49;99887.60;130310;1265;106665;-79
2024/02/27 11:30:02;;;;;;;20.60;15.30;;;;;;;15.13;81.28;99886.92;130342;1259;106450;-80
2024/02/27 11:33:10;;;;;;;22.60;15.90;;;;;;;15.09;81.06;99889.36;130305;1259;107421;-79
2024/02/27 11:36:16;;;;;;;19.50;15.30;;;;;;;14.99;80.60;99887.20;130531;1263;107534;-78
2024/02/27 11:39:33;;;;;;;19.70;15.20;;;;;;;14.87;80.18;99885.98;130196;1265;107713;-79
2024/02/27 11:42:42;;;;;;;17.90;14.20;;;;;;;14.77;80.28;99883.12;130210;1264;107838;-78
2024/02/27 11:45:48;;;;;;;18.90;13.90;;;;;;;14.68;80.31;99881.70;130319;1259;107687;-79
2024/02/27 11:48:54;;;;;;;15.50;13.00;;;;;;;14.63;79.94;99883.91;130188;1264;107694;-79
2024/02/27 11:52:00;;;;;;;23.00;16.20;;;;;;;14.62;80.21;99883.89;130109;1264;107639;-79
2024/02/27 11:55:10;;;;;;;21.50;15.00;;;;;;;14.64;80.14;99885.33;130150;1267;108087;-82
2024/02/27 11:58:17;;;;;;;23.50;15.80;;;;;;;14.68;80.00;99881.66;130194;1264;107835;-79
2024/02/27 12:01:23;;;;;;;19.40;15.30;;;;;;;14.72;80.10;99880.83;130114;1266;107889;-81
2024/02/27 12:04:28;;;;;;;21.90;16.70;;;;;;;14.79;80.14;99884.51;130228;1260;106748;-79
2024/02/27 12:07:35;;;;;;;25.50;17.20;;;;;;;14.83;79.72;99880.51;130118;1265;107648;-79
2024/02/27 12:10:40;;;;;;;20.80;16.30;;;;;;;14.88;79.97;99880.59;130173;1263;106875;-78
2024/02/27 12:13:48;;;;;;;20.70;16.40;;;;;;;14.93;79.56;99876.68;130204;1265;107348;-78
2024/02/27 12:16:54;;;;;;;25.00;18.10;;;;;;;14.97;79.14;99872.08;130249;1263;106873;-81
2024/02/27 12:20:00;;;;;;;24.70;18.20;;;;;;;15.00;79.29;99872.00;130720;1263;106669;-79
2024/02/27 12:23:06;;;;;;;21.70;16.90;;;;;;;15.04;78.67;99868.27;130337;1271;108702;-79
2024/02/27 12:26:17;;;;;;;21.00;15.30;;;;;;;15.10;78.62;99874.20;130437;1264;107525;-79
2024/02/27 12:29:27;;;;;;;18.20;15.40;;;;;;;15.14;78.40;99870.40;130585;1263;108557;-79
2024/02/27 12:32:32;;;;;;;18.60;15.00;;;;;;;15.20;78.36;99875.98;130334;1271;106265;-79
2024/02/27 12:35:38;;;;;;;17.40;15.30;;;;;;;15.24;78.25;99875.59;130323;1265;106440;-79
2024/02/27 12:38:52;;;;;;;20.40;15.80;;;;;;;15.31;78.32;99867.11;130352;1264;108761;-80
2024/02/27 12:42:17;;;;;;;20.20;15.30;;;;;;;15.37;78.31;99870.23;130956;1261;107715;-79
2024/02/27 12:45:23;;;;;;;19.50;15.10;;;;;;;15.45;77.97;99869.10;130621;1263;107772;-79
2024/02/27 12:48:28;;;;;;;17.80;13.60;;;;;;;15.50;77.63;99867.48;130502;1260;107699;-78
2024/02/27 12:51:34;;;;;;;17.70;13.80;;;;;;;15.53;77.68;99864.45;131981;1264;106534;-79
2024/02/27 12:54:39;;;;;;;17.50;13.70;;;;;;;15.57;77.29;99864.85;130395;1263;109000;-82
2024/02/27 12:57:52;;;;;;;14.80;12.50;;;;;;;15.60;77.28;99854.73;130598;1265;108643;-80
2024/02/27 13:00:58;;;;;;;15.90;12.70;;;;;;;15.64;76.94;99853.69;130449;1259;108672;-79
2024/02/27 13:04:04;;;;;;;15.60;12.10;;;;;;;15.69;77.04;99854.21;131035;1264;106273;-79
2024/02/27 13:07:10;;;;;;;15.20;12.90;;;;;;;15.75;76.88;99857.14;130809;1259;106948;-79
2024/02/27 13:10:19;;;;;;;15.20;12.00;;;;;;;15.79;76.66;99847.27;130469;1263;108431;-79
2024/02/27 13:13:30;;;;;;;13.30;11.10;;;;;;;15.86;76.40;99849.15;130156;1264;108649;-79
2024/02/27 13:16:35;;;;;;;15.50;12.00;;;;;;;15.93;76.32;99852.73;130174;1274;107573;-79
2024/02/27 13:19:41;;;;;;;15.70;12.50;;;;;;;15.96;76.08;99848.73;130375;1262;107146;-79
2024/02/27 13:22:47;;;;;;;14.80;12.00;;;;;;;15.98;75.89;99849.13;130095;1264;107376;-79
2024/02/27 13:25:53;;;;;;;16.30;12.50;;;;;;;15.97;75.80;99848.37;130264;1265;108702;-79
2024/02/27 13:28:59;;;;;;;15.50;11.90;;;;;;;15.92;75.49;99853.29;130115;1264;173562;-79
2024/02/27 13:32:05;;;;;;;15.60;12.60;;;;;;;15.86;75.48;99849.85;130905;1262;107666;-80
2024/02/27 13:35:11;;;;;;;14.20;11.60;;;;;;;15.79;75.24;99848.08;130836;1269;108277;-79
2024/02/27 13:38:17;;;;;;;15.30;11.80;;;;;;;15.74;75.19;99846.91;130477;1265;107693;-79
2024/02/27 13:41:23;;;;;;;20.90;14.90;;;;;;;15.71;75.20;99846.53;130771;1260;108203;-79
2024/02/27 13:44:28;;;;;;;23.10;17.90;;;;;;;15.68;75.09;99845.89;130695;1261;107697;-79
2024/02/27 13:47:34;;;;;;;16.00;13.50;;;;;;;15.65;75.30;99843.77;130085;1264;108618;-77
2024/02/27 13:50:40;;;;;;;16.40;13.30;;;;;;;15.62;75.03;99845.44;130072;1265;108751;-78
2024/02/27 13:53:45;;;;;;;17.30;13.00;;;;;;;15.58;75.06;99848.42;130144;1261;108120;-78
2024/02/27 13:56:51;;;;;;;19.40;15.30;;;;;;;15.56;74.91;99847.54;130071;1265;106670;-78
2024/02/27 13:59:57;;;;;;;16.50;12.60;;;;;;;15.54;74.77;99844.60;130127;1266;107703;-79
2024/02/27 14:03:03;;;;;;;25.80;22.70;;;;;;;15.52;74.56;99847.89;130058;1265;107901;-78